createdAt,value
2023-01-18T00:01:25.461Z,8.80
2023-01-18T00:03:52.215Z,6.07
2023-01-18T00:06:19.011Z,6.53
2023-01-18T00:08:45.695Z,8.18
2023-01-18T00:14:09.339Z,5.63
2023-01-18T00:16:39.275Z,6.93
2023-01-18T00:19:12.502Z,6.85
2023-01-18T00:21:39.939Z,6.70
2023-01-18T00:24:14.180Z,8.98
2023-01-18T00:26:42.272Z,9.40
2023-01-18T00:29:09.620Z,8.88
2023-01-18T00:31:39.654Z,5.38
2023-01-18T00:34:06.933Z,6.05
2023-01-18T00:36:33.877Z,7.65
2023-01-18T00:39:00.666Z,5.93
2023-01-18T00:41:29.812Z,5.75
2023-01-18T00:43:57.314Z,11.00
2023-01-18T00:46:26.740Z,6.32
2023-01-18T00:48:58.640Z,7.47
2023-01-18T00:51:25.582Z,7.82
2023-01-18T00:53:52.280Z,6.03
2023-01-18T00:56:21.235Z,5.88
2023-01-18T00:58:48.190Z,4.63
2023-01-18T01:01:17.839Z,6.05
2023-01-18T01:04:05.684Z,7.88
2023-01-18T01:06:46.654Z,6.45
2023-01-18T01:09:18.848Z,6.97
2023-01-18T01:12:05.449Z,9.02
2023-01-18T01:14:53.576Z,8.43
2023-01-18T01:17:39.400Z,7.72
2023-01-18T01:20:25.750Z,5.38
2023-01-18T01:23:11.335Z,6.90
2023-01-18T01:25:57.067Z,9.20
2023-01-18T01:28:23.986Z,9.18
2023-01-18T01:30:55.425Z,7.50
2023-01-18T01:33:22.618Z,10.68
2023-01-18T01:35:49.338Z,10.43
2023-01-18T01:38:18.680Z,6.30
2023-01-18T01:40:57.105Z,8.35
2023-01-18T01:43:57.213Z,7.78
2023-01-18T01:46:26.251Z,6.57
2023-01-18T01:49:06.324Z,4.53
2023-01-18T01:51:38.679Z,7.85
2023-01-18T01:54:25.127Z,6.93
2023-01-18T01:56:57.051Z,7.63
2023-01-18T01:59:24.115Z,13.27
2023-01-18T02:01:50.947Z,11.38
2023-01-18T02:04:23.055Z,12.43
2023-01-18T02:06:49.759Z,8.30
2023-01-18T02:09:22.388Z,10.75
2023-01-18T02:14:20.688Z,5.40
2023-01-18T02:17:04.895Z,6.07
2023-01-18T02:19:52.820Z,8.82
2023-01-18T02:22:40.770Z,6.68
2023-01-18T02:25:43.227Z,6.57
2023-01-18T02:28:16.500Z,6.85
2023-01-18T02:31:02.627Z,7.00
2023-01-18T02:33:54.644Z,6.82
2023-01-18T02:36:54.543Z,6.68
2023-01-18T02:39:47.352Z,9.15
2023-01-18T02:42:38.485Z,5.00
2023-01-18T02:45:55.744Z,6.82
2023-01-18T02:48:23.996Z,6.68
2023-01-18T02:50:51.123Z,6.45
2023-01-18T02:53:17.772Z,8.05
2023-01-18T02:56:02.851Z,6.85
2023-01-18T02:58:34.098Z,4.63
2023-01-18T03:01:25.488Z,6.75
2023-01-18T03:03:56.976Z,6.43
2023-01-18T03:06:27.581Z,7.97
2023-01-18T03:08:55.933Z,6.00
2023-01-18T03:11:38.663Z,8.07
2023-01-18T03:14:31.954Z,5.68
2023-01-18T03:17:04.438Z,7.72
2023-01-18T03:20:02.888Z,6.47
2023-01-18T03:22:53.835Z,6.70
2023-01-18T03:25:27.943Z,7.18
2023-01-18T03:28:18.306Z,10.77
2023-01-18T03:31:05.081Z,15.10
2023-01-18T03:33:42.289Z,9.63
2023-01-18T03:36:30.981Z,8.88
2023-01-18T03:39:04.876Z,10.85
2023-01-18T03:41:36.088Z,9.18
2023-01-18T03:44:12.139Z,8.27
2023-01-18T03:46:39.762Z,7.18
2023-01-18T03:49:07.514Z,6.60
2023-01-18T03:52:03.535Z,6.75
2023-01-18T03:54:36.312Z,6.70
2023-01-18T03:59:34.869Z,7.85
2023-01-18T04:02:03.493Z,7.28
2023-01-18T04:04:33.963Z,9.60
2023-01-18T04:07:01.799Z,9.60
2023-01-18T04:09:31.052Z,11.38
2023-01-18T04:11:59.727Z,9.13
2023-01-18T04:14:28.557Z,9.77
2023-01-18T04:16:55.289Z,10.43
2023-01-18T04:19:23.949Z,10.85
2023-01-18T04:21:55.223Z,13.43
2023-01-18T04:27:14.849Z,14.10
2023-01-18T04:29:41.514Z,16.90
2023-01-18T04:32:08.196Z,14.73
2023-01-18T04:34:34.937Z,16.88
2023-01-18T04:37:04.055Z,14.82
2023-01-18T04:39:33.700Z,17.05
2023-01-18T04:42:02.675Z,14.30
2023-01-18T04:44:35.131Z,16.85
2023-01-18T04:47:02.759Z,14.68
2023-01-18T04:49:29.314Z,13.15
2023-01-18T04:52:00.612Z,21.45
2023-01-18T04:54:27.531Z,17.85
2023-01-18T04:56:54.147Z,12.80
2023-01-18T04:59:20.736Z,16.50
2023-01-18T05:01:47.608Z,14.27
2023-01-18T05:04:16.739Z,13.98
2023-01-18T05:06:43.940Z,14.05
2023-01-18T05:09:12.130Z,19.02
2023-01-18T05:11:39.010Z,13.50
2023-01-18T05:14:10.767Z,20.05
2023-01-18T05:16:39.501Z,16.92
2023-01-18T05:19:11.494Z,12.60
2023-01-18T05:21:47.740Z,14.40
2023-01-18T05:24:16.349Z,14.82
2023-01-18T05:26:44.802Z,14.45
2023-01-18T05:29:11.440Z,16.48
2023-01-18T05:31:38.155Z,15.85
2023-01-18T05:34:10.312Z,16.30
2023-01-18T05:36:42.343Z,16.70
2023-01-18T05:39:11.371Z,14.60
2023-01-18T05:41:42.986Z,14.82
2023-01-18T05:44:10.476Z,15.52
2023-01-18T05:46:37.218Z,16.88
2023-01-18T05:49:03.865Z,15.43
2023-01-18T05:51:33.010Z,13.60
2023-01-18T05:53:59.695Z,17.75
2023-01-18T05:56:26.553Z,100.90
2023-01-18T05:58:55.528Z,86.75
2023-01-18T06:01:22.422Z,78.00
2023-01-18T06:03:49.291Z,47.83
2023-01-18T06:06:16.563Z,29.38
2023-01-18T06:08:51.507Z,50.58
2023-01-18T06:11:21.741Z,32.55
2023-01-18T06:13:53.597Z,18.83
2023-01-18T06:16:28.374Z,23.77
2023-01-18T06:19:05.105Z,23.88
2023-01-18T06:21:36.031Z,49.22
2023-01-18T06:24:03.354Z,21.17
2023-01-18T06:26:30.511Z,19.25
2023-01-18T06:29:03.630Z,22.10
2023-01-18T06:31:42.921Z,15.80
2023-01-18T06:34:09.876Z,14.05
2023-01-18T06:36:40.864Z,11.13
2023-01-18T06:39:11.158Z,11.93
2023-01-18T06:44:30.748Z,14.05
2023-01-18T06:46:58.800Z,10.27
2023-01-18T06:49:25.594Z,10.02
2023-01-18T06:51:52.361Z,25.55
2023-01-18T06:54:19.209Z,12.32
2023-01-18T06:56:47.510Z,12.07
2023-01-18T06:59:24.320Z,35.40
2023-01-18T07:01:54.025Z,19.42
2023-01-18T07:04:21.832Z,18.45
2023-01-18T07:07:02.940Z,17.80
2023-01-18T07:09:30.772Z,14.98
2023-01-18T07:11:59.328Z,17.95
2023-01-18T07:14:32.264Z,15.95
2023-01-18T07:17:14.618Z,12.40
2023-01-18T07:19:42.110Z,17.58
2023-01-18T07:22:11.863Z,12.48
2023-01-18T07:24:41.779Z,11.38
2023-01-18T07:27:23.693Z,13.07
2023-01-18T07:29:52.589Z,9.60
2023-01-18T07:32:20.727Z,10.27
2023-01-18T07:34:50.095Z,9.95
2023-01-18T07:37:19.800Z,12.13
2023-01-18T07:39:46.487Z,12.98
2023-01-18T07:42:18.232Z,11.05
2023-01-18T07:44:47.603Z,10.20
2023-01-18T07:47:16.434Z,9.80
2023-01-18T07:52:52.711Z,11.05
2023-01-18T07:58:21.542Z,10.80
2023-01-18T08:00:53.996Z,9.40
2023-01-18T08:03:20.998Z,7.90
2023-01-18T08:06:14.206Z,9.65
2023-01-18T08:08:41.256Z,9.82
2023-01-18T08:14:02.008Z,10.52
2023-01-18T08:16:32.318Z,16.25
2023-01-18T08:18:59.031Z,11.15
2023-01-18T08:21:26.614Z,13.45
2023-01-18T08:26:43.129Z,12.63
2023-01-18T08:29:10.002Z,9.15
2023-01-18T08:31:36.714Z,11.52
2023-01-18T08:34:04.003Z,9.48
2023-01-18T08:36:31.152Z,10.68
2023-01-18T08:39:01.092Z,9.73
2023-01-18T08:41:30.228Z,9.00
2023-01-18T08:46:59.496Z,10.82
2023-01-18T08:49:29.103Z,9.52
2023-01-18T08:52:10.283Z,7.73
2023-01-18T08:54:40.303Z,15.32
2023-01-18T08:57:32.117Z,8.63
2023-01-18T08:59:58.726Z,9.77
2023-01-18T09:08:50.652Z,8.27
2023-01-18T09:11:20.063Z,12.23
2023-01-18T09:14:01.932Z,7.70
2023-01-18T09:16:30.383Z,10.40
2023-01-18T09:19:10.742Z,6.72
2023-01-18T09:21:45.995Z,10.57
2023-01-18T09:24:12.702Z,11.93
2023-01-18T09:26:45.035Z,10.00
2023-01-18T09:29:40.543Z,10.70
2023-01-18T09:34:58.012Z,12.60
2023-01-18T09:37:27.206Z,14.93
2023-01-18T09:39:54.036Z,9.50
2023-01-18T09:42:37.629Z,10.50
2023-01-18T09:47:42.830Z,9.68
2023-01-18T09:50:14.182Z,10.30
2023-01-18T09:52:57.209Z,8.98
2023-01-18T09:56:02.144Z,12.57
2023-01-18T09:58:36.833Z,10.20
2023-01-18T10:01:34.602Z,17.33
2023-01-18T10:07:18.237Z,8.57
2023-01-18T10:09:49.219Z,10.70
2023-01-18T10:15:31.133Z,7.55
2023-01-18T10:18:00.202Z,10.63
2023-01-18T10:21:04.700Z,12.13
2023-01-18T10:23:55.653Z,12.80
2023-01-18T10:26:30.837Z,14.65
2023-01-18T10:29:15.350Z,12.98
2023-01-18T10:31:46.449Z,11.05
2023-01-18T10:34:19.820Z,11.50
2023-01-18T10:37:11.733Z,10.23
2023-01-18T10:39:47.307Z,33.00
2023-01-18T10:42:35.232Z,11.68
2023-01-18T10:45:24.531Z,26.75
2023-01-18T10:47:57.588Z,14.02
2023-01-18T10:50:36.574Z,14.88
2023-01-18T10:53:36.726Z,12.32
2023-01-18T10:56:20.967Z,12.75
2023-01-18T10:58:50.716Z,15.68
2023-01-18T11:01:52.298Z,16.15
2023-01-18T11:04:26.275Z,15.85
2023-01-18T11:06:58.400Z,16.98
2023-01-18T11:09:27.771Z,17.65
2023-01-18T11:12:36.165Z,12.68
2023-01-18T11:15:14.841Z,14.43
2023-01-18T11:17:59.682Z,15.00
2023-01-18T11:20:39.940Z,18.83
2023-01-18T11:23:09.490Z,18.77
2023-01-18T11:25:41.995Z,12.60
2023-01-18T11:28:21.123Z,19.38
2023-01-18T11:30:58.395Z,14.07
2023-01-18T11:33:27.646Z,16.40
2023-01-18T11:36:00.437Z,13.75
2023-01-18T11:38:35.904Z,16.70
2023-01-18T11:41:06.413Z,18.20
2023-01-18T11:43:36.938Z,23.15
2023-01-18T11:46:18.056Z,19.05
2023-01-18T11:49:03.991Z,43.90
2023-01-18T11:51:41.768Z,39.42
2023-01-18T11:54:25.829Z,19.30
2023-01-18T11:56:56.889Z,17.30
2023-01-18T11:59:30.981Z,19.63
2023-01-18T12:02:15.045Z,21.48
2023-01-18T12:05:12.867Z,13.95
2023-01-18T12:19:21.433Z,10.50
2023-01-18T12:22:03.129Z,9.00
2023-01-18T12:25:08.104Z,8.95
2023-01-18T12:28:16.516Z,7.13
2023-01-18T12:31:17.493Z,12.70
2023-01-18T12:33:57.734Z,10.98
2023-01-18T12:39:53.806Z,10.38
2023-01-18T12:42:32.169Z,8.23
2023-01-18T12:45:19.177Z,9.00
2023-01-18T12:48:02.948Z,8.35
2023-01-18T12:50:34.009Z,4.72
2023-01-18T12:53:05.864Z,6.93
2023-01-18T12:55:37.598Z,4.63
2023-01-18T12:58:05.149Z,5.90
2023-01-18T13:00:46.250Z,6.40
2023-01-18T13:03:16.742Z,5.60
2023-01-18T13:05:52.819Z,6.50
2023-01-18T13:09:00.325Z,4.55
2023-01-18T13:11:31.764Z,7.75
2023-01-18T13:14:07.121Z,9.20
2023-01-18T13:16:39.138Z,7.40
2023-01-18T13:19:14.631Z,10.65
2023-01-18T13:22:01.631Z,5.22
2023-01-18T13:24:45.628Z,5.97
2023-01-18T13:27:14.895Z,5.70
2023-01-18T13:29:44.756Z,7.47
2023-01-18T13:32:20.791Z,6.72
2023-01-18T13:35:18.049Z,4.80
2023-01-18T13:37:56.766Z,4.32
2023-01-18T13:40:25.912Z,8.25
2023-01-18T13:42:53.004Z,6.20
2023-01-18T13:45:25.653Z,8.00
2023-01-18T13:50:30.851Z,10.75
2023-01-18T13:53:12.811Z,5.07
2023-01-18T13:56:03.259Z,3.28
2023-01-18T13:58:37.308Z,2.88
2023-01-18T14:01:06.770Z,6.03
2023-01-18T14:03:42.809Z,14.77
2023-01-18T14:06:32.506Z,6.05
2023-01-18T14:09:08.696Z,15.45
2023-01-18T14:11:41.080Z,8.73
2023-01-18T14:14:25.158Z,9.85
2023-01-18T14:16:57.912Z,9.88
2023-01-18T14:22:35.355Z,10.15
2023-01-18T14:25:42.499Z,12.13
2023-01-18T14:28:38.451Z,7.00
2023-01-18T14:31:25.562Z,5.43
2023-01-18T14:33:54.447Z,5.82
2023-01-18T14:36:29.788Z,7.13
2023-01-18T14:39:16.573Z,6.95
2023-01-18T14:41:51.757Z,9.88
2023-01-18T14:44:40.727Z,15.20
2023-01-18T14:47:24.287Z,9.55
2023-01-18T14:49:55.041Z,7.85
2023-01-18T14:52:29.881Z,9.32
2023-01-18T14:54:56.943Z,10.93
2023-01-18T14:57:26.711Z,10.50
2023-01-18T15:00:15.580Z,10.63
2023-01-18T15:02:45.500Z,12.63
2023-01-18T15:05:19.584Z,9.93
2023-01-18T15:07:55.126Z,11.45
2023-01-18T15:10:23.462Z,15.90
2023-01-18T15:12:54.640Z,14.25
2023-01-18T15:15:27.389Z,9.07
2023-01-18T15:18:09.751Z,16.40
2023-01-18T15:20:51.336Z,15.05
2023-01-18T15:23:21.203Z,20.33
2023-01-18T15:25:52.787Z,11.68
2023-01-18T15:28:24.063Z,18.83
2023-01-18T15:30:55.519Z,16.85
2023-01-18T15:33:26.725Z,11.38
2023-01-18T15:35:57.377Z,11.15
2023-01-18T15:38:24.222Z,8.77
2023-01-18T15:41:17.065Z,7.32
2023-01-18T15:43:45.449Z,9.48
2023-01-18T15:46:15.379Z,6.90
2023-01-18T15:48:51.366Z,8.15
2023-01-18T15:51:42.599Z,6.75
2023-01-18T15:54:19.497Z,8.45
2023-01-18T15:57:14.671Z,11.45
2023-01-18T15:59:42.077Z,13.20
2023-01-18T16:02:12.878Z,9.05
2023-01-18T16:04:43.503Z,13.57
2023-01-18T16:07:33.692Z,9.18
2023-01-18T16:10:27.149Z,12.20
2023-01-18T16:13:29.235Z,13.63
2023-01-18T16:16:13.055Z,8.82
2023-01-18T16:18:48.390Z,13.00
2023-01-18T16:21:24.462Z,11.35
2023-01-18T16:23:53.569Z,11.95
2023-01-18T16:26:26.880Z,10.45
2023-01-18T16:29:04.900Z,14.00
2023-01-18T16:31:33.977Z,11.77
2023-01-18T16:34:02.010Z,11.32
2023-01-18T16:36:42.533Z,12.50
2023-01-18T16:39:09.538Z,8.73
2023-01-18T16:41:36.883Z,9.15
2023-01-18T16:44:11.862Z,13.00
2023-01-18T16:50:18.905Z,15.27
2023-01-18T16:55:44.966Z,7.75
2023-01-18T17:01:18.782Z,10.43
2023-01-18T17:03:55.254Z,7.47
2023-01-18T17:06:23.182Z,10.70
2023-01-18T17:11:49.938Z,14.60
2023-01-18T17:14:19.854Z,11.45
2023-01-18T17:16:50.845Z,18.88
2023-01-18T17:19:23.343Z,13.70
2023-01-18T17:21:57.936Z,11.70
2023-01-18T17:24:33.011Z,13.18
2023-01-18T17:27:00.633Z,14.80
2023-01-18T17:29:30.343Z,20.35
2023-01-18T17:31:58.820Z,17.35
2023-01-18T17:34:30.985Z,15.35
2023-01-18T17:39:42.581Z,11.40
2023-01-18T17:42:42.368Z,13.70
2023-01-18T17:45:13.620Z,13.82
2023-01-18T17:47:42.801Z,10.02
2023-01-18T17:50:14.792Z,13.27
2023-01-18T17:55:44.998Z,16.65
2023-01-18T17:58:11.595Z,21.63
2023-01-18T18:01:13.233Z,22.27
2023-01-18T18:03:47.885Z,25.63
2023-01-18T18:06:26.137Z,26.48
2023-01-18T18:09:01.191Z,24.13
2023-01-18T18:11:28.037Z,16.25
2023-01-18T18:13:56.092Z,19.60
2023-01-18T18:16:25.698Z,13.25
2023-01-18T18:19:19.510Z,12.23
2023-01-18T18:21:46.920Z,15.05
2023-01-18T18:24:13.644Z,16.77
2023-01-18T18:26:42.582Z,20.85
2023-01-18T18:29:11.397Z,26.58
2023-01-18T18:31:41.541Z,24.00
2023-01-18T18:34:10.982Z,19.90
2023-01-18T18:36:37.921Z,21.05
2023-01-18T18:39:08.247Z,24.33
2023-01-18T18:41:35.297Z,19.75
2023-01-18T18:44:05.828Z,20.05
2023-01-18T18:46:35.029Z,17.58
2023-01-18T18:49:02.191Z,18.38
2023-01-18T18:51:31.327Z,17.00
2023-01-18T18:54:00.975Z,17.98
2023-01-18T18:56:31.328Z,14.38
2023-01-18T18:58:58.083Z,20.20
2023-01-18T19:01:30.860Z,16.90
2023-01-18T19:03:59.961Z,26.30
2023-01-18T19:06:27.063Z,20.80
2023-01-18T19:08:53.940Z,30.33
2023-01-18T19:11:21.009Z,22.90
2023-01-18T19:13:50.324Z,27.45
2023-01-18T19:16:17.417Z,23.67
2023-01-18T19:18:46.799Z,23.15
2023-01-18T19:21:17.741Z,36.85
2023-01-18T19:23:46.008Z,23.88
2023-01-18T19:26:14.920Z,39.40
2023-01-18T19:28:41.630Z,21.75
2023-01-18T19:31:34.621Z,24.80
2023-01-18T19:34:06.033Z,19.33
2023-01-18T19:36:37.928Z,18.52
2023-01-18T19:39:07.003Z,26.60
2023-01-18T19:41:37.202Z,21.75
2023-01-18T19:44:06.431Z,23.05
2023-01-18T19:46:34.987Z,19.67
2023-01-18T19:49:04.750Z,16.23
2023-01-18T19:51:40.536Z,15.57
2023-01-18T19:54:10.461Z,18.13
2023-01-18T19:56:37.991Z,17.05
2023-01-18T19:59:04.717Z,24.33
2023-01-18T20:01:36.819Z,22.60
2023-01-18T20:04:09.110Z,25.88
2023-01-18T20:06:39.128Z,26.73
2023-01-18T20:09:18.527Z,32.63
2023-01-18T20:11:48.328Z,14.65
2023-01-18T20:14:18.723Z,14.18
2023-01-18T20:16:49.480Z,21.35
2023-01-18T20:19:21.831Z,25.30
2023-01-18T20:21:48.727Z,77.68
2023-01-18T20:24:16.142Z,100.60
2023-01-18T20:26:45.875Z,72.05
2023-01-18T20:29:12.539Z,56.88
2023-01-18T20:31:39.489Z,40.40
2023-01-18T20:34:06.585Z,41.33
2023-01-18T20:36:35.907Z,28.23
2023-01-18T20:39:04.818Z,27.27
2023-01-18T20:41:31.559Z,23.83
2023-01-18T20:43:58.226Z,23.52
2023-01-18T20:46:27.518Z,21.80
2023-01-18T20:48:58.021Z,11.27
2023-01-18T20:51:26.451Z,20.77
2023-01-18T20:53:53.097Z,20.30
2023-01-18T20:56:35.069Z,17.00
2023-01-18T20:59:02.007Z,17.23
2023-01-18T21:01:31.937Z,26.35
2023-01-18T21:04:04.432Z,13.20
2023-01-18T21:06:31.899Z,21.25
2023-01-18T21:09:03.615Z,25.83
2023-01-18T21:11:33.237Z,21.97
2023-01-18T21:14:00.225Z,17.20
2023-01-18T21:16:27.471Z,16.30
2023-01-18T21:18:56.097Z,13.05
2023-01-18T21:21:23.378Z,13.13
2023-01-18T21:23:53.223Z,18.67
2023-01-18T21:26:25.395Z,11.85
2023-01-18T21:28:52.244Z,20.77
2023-01-18T21:31:18.994Z,11.25
2023-01-18T21:33:46.126Z,12.52
2023-01-18T21:36:16.777Z,11.80
2023-01-18T21:38:45.970Z,12.10
2023-01-18T21:41:32.426Z,14.13
2023-01-18T21:44:17.845Z,10.77
2023-01-18T21:46:52.201Z,10.85
2023-01-18T21:52:48.817Z,15.32
2023-01-18T21:55:17.725Z,14.80
2023-01-18T21:57:44.779Z,15.48
2023-01-18T22:00:13.408Z,22.30
2023-01-18T22:02:40.347Z,20.67
2023-01-18T22:05:09.183Z,12.15
2023-01-18T22:07:38.409Z,16.17
2023-01-18T22:10:07.909Z,16.45
2023-01-18T22:12:38.225Z,13.95
2023-01-18T22:15:05.608Z,14.90
2023-01-18T22:17:39.551Z,17.67
2023-01-18T22:20:34.596Z,13.07
2023-01-18T22:23:01.245Z,16.75
2023-01-18T22:25:27.897Z,15.82
2023-01-18T22:27:59.249Z,11.90
2023-01-18T22:30:26.677Z,12.77
2023-01-18T22:32:56.513Z,16.60
2023-01-18T22:35:23.359Z,10.25
2023-01-18T22:37:54.994Z,11.82
2023-01-18T22:40:26.556Z,10.25
2023-01-18T22:42:53.275Z,12.60
2023-01-18T22:45:22.609Z,13.68
2023-01-18T22:47:54.928Z,13.33
2023-01-18T22:50:22.405Z,13.50
2023-01-18T22:52:49.026Z,11.07
2023-01-18T22:55:19.226Z,11.00
2023-01-18T22:57:45.959Z,11.98
2023-01-18T23:00:15.571Z,11.18
2023-01-18T23:02:47.844Z,16.85
2023-01-18T23:05:16.879Z,11.32
2023-01-18T23:07:43.839Z,10.68
2023-01-18T23:10:27.462Z,15.55
2023-01-18T23:12:54.153Z,12.27
2023-01-18T23:15:44.197Z,13.32
2023-01-18T23:18:10.917Z,11.40
2023-01-18T23:20:37.923Z,14.23
2023-01-18T23:23:09.250Z,12.82
2023-01-18T23:25:38.842Z,10.27
2023-01-18T23:28:05.559Z,11.60
2023-01-18T23:30:32.309Z,11.50
2023-01-18T23:32:59.226Z,11.02
2023-01-18T23:38:05.665Z,13.30
2023-01-18T23:46:50.129Z,12.68
2023-01-18T23:58:27.373Z,9.82
